Aviation Digital Data Service (ADDS)

Output produced by METARs form (0258 UTC 18 August 2017)
found at http://www.aviationweather.gov/adds/metars/
 
EBBE 180225Z AUTO 26005KT 9999 BKN055/// BKN075/// 16/16 Q1014 BLU
EBBR 180250Z 22005KT 190V250 9999 FEW017 BKN038 17/15 Q1013 NOSIG
TAF EBBR 172310Z 1800/1906 18005KT 9999 FEW020 BKN090 
     TEMPO 1802/1805 4000 BR 
     PROB40 
     TEMPO 1802/1806 BKN007 
     BECMG 1812/1814 25010KT 
     TEMPO 1900/1906 25012G22KT
       
EBCI 180250Z 17006KT 9999 FEW024 16/16 Q1014 NOSIG
TAF EBCI 172310Z 1800/1906 18005KT 9999 FEW020 BKN090 
     TEMPO 1802/1807 4000 BR BKN006 
     PROB30 
     TEMPO 1803/1806 BKN003 
     TEMPO 1807/1811 4000 SHRA SCT008 BKN012 
     PROB30 
     TEMPO 1807/1811 2500 TSRA 
       
EBCV 180225Z AUTO 18003KT 9999 OVC022/// 17/16 Q1014 WHT
EBAW 180250Z AUTO 20004KT CAVOK 18/14 Q1013
TAF EBAW 180210Z 1803/1812 20005KT 9999 FEW020 BKN090 
     TEMPO 1803/1805 4000 BR 
     PROB40 
     TEMPO 1803/1806 BKN007
       
EBFS 180225Z AUTO VRB01KT 9999 FEW013/// SCT035/// BKN044/// 15/// Q1015 BLU
EBBL 180243Z AUTO 24003KT 9999 -RA BKN000/// 17/16 Q1014 RED
EBFN 180225Z AUTO 22007KT 9999 BKN063/// OVC150/// 16/15 Q1013 BLU
EBLG 180250Z 23004KT 190V280 9999 -RA FEW008 BKN038 17/15 Q1014 NOSIG
TAF EBLG 172310Z 1800/1906 20005KT 9999 FEW020 SCT090 
     TEMPO 1803/1808 4000 BR BKN006 
     PROB30 
     TEMPO 1804/1807 BKN003 
     TEMPO 1807/1811 4000 SHRA SCT008 BKN012 
     PROB30 
     TEMPO 1808/1812 2500 TSRA
       
EBOS 180250Z 22006KT CAVOK 16/14 Q1013 NOSIG
TAF EBOS 172310Z 1800/1906 20008KT 9999 FEW020 SCT045 
     TEMPO 1815/1906 25020G30KT 
     PROB30 
     TEMPO 1902/1906 4000 SHRA